sensor_id;sensor_type;location;lat;lon;timestamp;P1;durP1;ratioP1;P2;durP2;ratioP2
15708;SDS011;7954;51.914;8.420;2023-05-07T00:01:28;8.37;;;4.93;;
15708;SDS011;7954;51.914;8.420;2023-05-07T00:03:56;5.73;;;5.23;;
15708;SDS011;7954;51.914;8.420;2023-05-07T00:06:25;5.80;;;5.20;;
15708;SDS011;7954;51.914;8.420;2023-05-07T00:08:56;5.67;;;5.17;;
15708;SDS011;7954;51.914;8.420;2023-05-07T00:11:24;5.67;;;5.17;;
15708;SDS011;7954;51.914;8.420;2023-05-07T00:13:52;6.13;;;5.53;;
15708;SDS011;7954;51.914;8.420;2023-05-07T00:16:23;6.13;;;5.60;;
15708;SDS011;7954;51.914;8.420;2023-05-07T00:18:51;5.77;;;5.27;;
15708;SDS011;7954;51.914;8.420;2023-05-07T00:21:20;6.57;;;5.83;;
15708;SDS011;7954;51.914;8.420;2023-05-07T00:23:48;6.20;;;5.70;;
15708;SDS011;7954;51.914;8.420;2023-05-07T00:26:16;6.90;;;6.20;;
15708;SDS011;7954;51.914;8.420;2023-05-07T00:28:44;6.37;;;5.77;;
15708;SDS011;7954;51.914;8.420;2023-05-07T00:31:12;6.90;;;6.20;;
15708;SDS011;7954;51.914;8.420;2023-05-07T00:33:42;7.10;;;6.50;;
15708;SDS011;7954;51.914;8.420;2023-05-07T00:36:10;7.03;;;6.43;;
15708;SDS011;7954;51.914;8.420;2023-05-07T00:38:37;7.13;;;6.10;;
15708;SDS011;7954;51.914;8.420;2023-05-07T00:41:05;7.27;;;6.60;;
15708;SDS011;7954;51.914;8.420;2023-05-07T00:43:33;7.40;;;6.70;;
15708;SDS011;7954;51.914;8.420;2023-05-07T00:46:01;7.30;;;6.60;;
15708;SDS011;7954;51.914;8.420;2023-05-07T00:48:29;6.70;;;6.10;;
15708;SDS011;7954;51.914;8.420;2023-05-07T00:50:59;7.53;;;6.73;;
15708;SDS011;7954;51.914;8.420;2023-05-07T00:53:27;8.07;;;7.27;;
15708;SDS011;7954;51.914;8.420;2023-05-07T00:55:55;7.73;;;6.37;;
15708;SDS011;7954;51.914;8.420;2023-05-07T00:58:23;7.50;;;6.80;;
15708;SDS011;7954;51.914;8.420;2023-05-07T01:00:51;7.03;;;6.43;;
15708;SDS011;7954;51.914;8.420;2023-05-07T01:03:20;7.00;;;6.40;;
15708;SDS011;7954;51.914;8.420;2023-05-07T01:05:48;7.57;;;6.80;;
15708;SDS011;7954;51.914;8.420;2023-05-07T01:08:20;7.73;;;6.93;;
15708;SDS011;7954;51.914;8.420;2023-05-07T01:10:52;8.53;;;6.97;;
15708;SDS011;7954;51.914;8.420;2023-05-07T01:13:20;7.90;;;7.20;;
15708;SDS011;7954;51.914;8.420;2023-05-07T01:15:48;7.47;;;6.63;;
15708;SDS011;7954;51.914;8.420;2023-05-07T01:18:16;8.87;;;7.10;;
15708;SDS011;7954;51.914;8.420;2023-05-07T01:20:45;7.47;;;6.77;;
15708;SDS011;7954;51.914;8.420;2023-05-07T01:23:15;7.80;;;7.20;;
15708;SDS011;7954;51.914;8.420;2023-05-07T01:25:50;7.47;;;6.77;;
15708;SDS011;7954;51.914;8.420;2023-05-07T01:28:18;7.70;;;7.00;;
15708;SDS011;7954;51.914;8.420;2023-05-07T01:30:48;8.30;;;7.50;;
15708;SDS011;7954;51.914;8.420;2023-05-07T01:33:20;7.77;;;7.10;;
15708;SDS011;7954;51.914;8.420;2023-05-07T01:35:50;7.97;;;7.27;;
15708;SDS011;7954;51.914;8.420;2023-05-07T01:38:22;8.00;;;7.30;;
15708;SDS011;7954;51.914;8.420;2023-05-07T01:40:51;6.97;;;6.37;;
15708;SDS011;7954;51.914;8.420;2023-05-07T01:43:19;7.80;;;6.77;;
15708;SDS011;7954;51.914;8.420;2023-05-07T01:45:47;7.37;;;6.70;;
15708;SDS011;7954;51.914;8.420;2023-05-07T01:48:16;8.33;;;7.53;;
15708;SDS011;7954;51.914;8.420;2023-05-07T01:50:45;7.93;;;7.23;;
15708;SDS011;7954;51.914;8.420;2023-05-07T01:53:14;7.07;;;6.47;;
15708;SDS011;7954;51.914;8.420;2023-05-07T01:55:45;7.27;;;6.67;;
15708;SDS011;7954;51.914;8.420;2023-05-07T01:58:14;7.90;;;7.20;;
15708;SDS011;7954;51.914;8.420;2023-05-07T02:00:42;7.87;;;7.07;;
15708;SDS011;7954;51.914;8.420;2023-05-07T02:03:10;7.50;;;6.87;;
15708;SDS011;7954;51.914;8.420;2023-05-07T02:05:38;7.80;;;7.10;;
15708;SDS011;7954;51.914;8.420;2023-05-07T02:08:06;8.27;;;7.57;;
15708;SDS011;7954;51.914;8.420;2023-05-07T02:10:34;7.67;;;7.07;;
15708;SDS011;7954;51.914;8.420;2023-05-07T02:13:03;8.07;;;7.37;;
15708;SDS011;7954;51.914;8.420;2023-05-07T02:15:31;7.97;;;7.30;;
15708;SDS011;7954;51.914;8.420;2023-05-07T02:18:00;7.57;;;6.97;;
15708;SDS011;7954;51.914;8.420;2023-05-07T02:20:29;8.33;;;7.53;;
15708;SDS011;7954;51.914;8.420;2023-05-07T02:22:57;8.37;;;7.57;;
15708;SDS011;7954;51.914;8.420;2023-05-07T02:25:25;8.13;;;7.43;;
15708;SDS011;7954;51.914;8.420;2023-05-07T02:27:53;7.77;;;7.17;;
15708;SDS011;7954;51.914;8.420;2023-05-07T02:30:22;8.57;;;7.77;;
15708;SDS011;7954;51.914;8.420;2023-05-07T02:32:51;8.93;;;8.13;;
15708;SDS011;7954;51.914;8.420;2023-05-07T02:35:19;9.10;;;8.30;;
15708;SDS011;7954;51.914;8.420;2023-05-07T02:37:48;8.97;;;8.07;;
15708;SDS011;7954;51.914;8.420;2023-05-07T02:40:16;9.17;;;8.27;;
15708;SDS011;7954;51.914;8.420;2023-05-07T02:42:44;8.70;;;7.87;;
15708;SDS011;7954;51.914;8.420;2023-05-07T02:45:12;8.07;;;7.47;;
15708;SDS011;7954;51.914;8.420;2023-05-07T02:47:42;8.10;;;7.50;;
15708;SDS011;7954;51.914;8.420;2023-05-07T02:50:10;9.50;;;8.70;;
15708;SDS011;7954;51.914;8.420;2023-05-07T02:52:38;8.30;;;7.60;;
15708;SDS011;7954;51.914;8.420;2023-05-07T02:55:06;8.50;;;7.70;;
15708;SDS011;7954;51.914;8.420;2023-05-07T02:57:35;8.63;;;7.87;;
15708;SDS011;7954;51.914;8.420;2023-05-07T03:00:12;8.87;;;8.07;;
15708;SDS011;7954;51.914;8.420;2023-05-07T03:02:43;7.70;;;7.00;;
15708;SDS011;7954;51.914;8.420;2023-05-07T03:05:11;8.80;;;7.90;;
15708;SDS011;7954;51.914;8.420;2023-05-07T03:07:40;8.27;;;7.47;;
15708;SDS011;7954;51.914;8.420;2023-05-07T03:10:11;8.87;;;8.07;;
15708;SDS011;7954;51.914;8.420;2023-05-07T03:12:39;7.97;;;7.37;;
15708;SDS011;7954;51.914;8.420;2023-05-07T03:15:08;8.87;;;8.13;;
15708;SDS011;7954;51.914;8.420;2023-05-07T03:17:36;9.10;;;8.20;;
15708;SDS011;7954;51.914;8.420;2023-05-07T03:20:07;8.83;;;8.13;;
15708;SDS011;7954;51.914;8.420;2023-05-07T03:22:36;9.33;;;8.53;;
15708;SDS011;7954;51.914;8.420;2023-05-07T03:25:04;8.80;;;8.00;;
15708;SDS011;7954;51.914;8.420;2023-05-07T03:27:34;8.80;;;8.10;;
15708;SDS011;7954;51.914;8.420;2023-05-07T03:30:03;9.70;;;8.80;;
15708;SDS011;7954;51.914;8.420;2023-05-07T03:32:33;9.37;;;8.47;;
15708;SDS011;7954;51.914;8.420;2023-05-07T03:35:01;9.83;;;8.93;;
15708;SDS011;7954;51.914;8.420;2023-05-07T03:37:31;9.43;;;8.53;;
15708;SDS011;7954;51.914;8.420;2023-05-07T03:39:59;10.00;;;9.10;;
15708;SDS011;7954;51.914;8.420;2023-05-07T03:42:30;9.33;;;8.53;;
15708;SDS011;7954;51.914;8.420;2023-05-07T03:44:58;9.17;;;8.33;;
15708;SDS011;7954;51.914;8.420;2023-05-07T03:47:27;9.20;;;8.40;;
15708;SDS011;7954;51.914;8.420;2023-05-07T03:49:55;9.50;;;8.60;;
15708;SDS011;7954;51.914;8.420;2023-05-07T03:52:22;9.50;;;8.70;;
15708;SDS011;7954;51.914;8.420;2023-05-07T03:54:53;9.10;;;8.30;;
15708;SDS011;7954;51.914;8.420;2023-05-07T03:57:21;8.77;;;8.07;;
15708;SDS011;7954;51.914;8.420;2023-05-07T03:59:49;8.73;;;8.03;;
15708;SDS011;7954;51.914;8.420;2023-05-07T04:02:16;9.07;;;8.37;;
15708;SDS011;7954;51.914;8.420;2023-05-07T04:04:45;9.53;;;8.53;;
15708;SDS011;7954;51.914;8.420;2023-05-07T04:07:13;9.77;;;8.87;;
15708;SDS011;7954;51.914;8.420;2023-05-07T04:09:41;8.73;;;7.93;;
15708;SDS011;7954;51.914;8.420;2023-05-07T04:12:12;9.17;;;8.40;;
15708;SDS011;7954;51.914;8.420;2023-05-07T04:14:40;9.40;;;8.60;;
15708;SDS011;7954;51.914;8.420;2023-05-07T04:17:07;9.50;;;8.63;;
15708;SDS011;7954;51.914;8.420;2023-05-07T04:19:36;9.70;;;8.70;;
15708;SDS011;7954;51.914;8.420;2023-05-07T04:22:04;9.10;;;8.30;;
15708;SDS011;7954;51.914;8.420;2023-05-07T04:24:32;9.67;;;8.87;;
15708;SDS011;7954;51.914;8.420;2023-05-07T04:27:00;10.00;;;9.10;;
15708;SDS011;7954;51.914;8.420;2023-05-07T04:29:30;9.60;;;8.80;;
15708;SDS011;7954;51.914;8.420;2023-05-07T04:31:57;9.60;;;8.80;;
15708;SDS011;7954;51.914;8.420;2023-05-07T04:34:25;9.47;;;8.50;;
15708;SDS011;7954;51.914;8.420;2023-05-07T04:36:53;10.43;;;9.43;;
15708;SDS011;7954;51.914;8.420;2023-05-07T04:39:21;9.97;;;9.03;;
15708;SDS011;7954;51.914;8.420;2023-05-07T04:41:49;10.17;;;9.27;;
15708;SDS011;7954;51.914;8.420;2023-05-07T04:44:17;9.77;;;8.97;;
15708;SDS011;7954;51.914;8.420;2023-05-07T04:46:46;9.87;;;8.93;;
15708;SDS011;7954;51.914;8.420;2023-05-07T04:49:14;9.90;;;9.00;;
15708;SDS011;7954;51.914;8.420;2023-05-07T04:51:42;10.07;;;9.27;;
15708;SDS011;7954;51.914;8.420;2023-05-07T04:54:10;9.90;;;9.00;;
15708;SDS011;7954;51.914;8.420;2023-05-07T04:56:38;10.00;;;9.13;;
15708;SDS011;7954;51.914;8.420;2023-05-07T04:59:05;10.23;;;9.23;;
15708;SDS011;7954;51.914;8.420;2023-05-07T05:01:33;9.70;;;8.90;;
15708;SDS011;7954;51.914;8.420;2023-05-07T05:04:03;10.47;;;9.47;;
15708;SDS011;7954;51.914;8.420;2023-05-07T05:06:31;10.20;;;9.23;;
15708;SDS011;7954;51.914;8.420;2023-05-07T05:09:00;10.47;;;9.47;;
15708;SDS011;7954;51.914;8.420;2023-05-07T05:11:28;10.37;;;9.47;;
15708;SDS011;7954;51.914;8.420;2023-05-07T05:13:56;10.37;;;9.37;;
15708;SDS011;7954;51.914;8.420;2023-05-07T05:16:24;9.43;;;8.53;;
15708;SDS011;7954;51.914;8.420;2023-05-07T05:18:52;9.23;;;8.53;;
15708;SDS011;7954;51.914;8.420;2023-05-07T05:21:22;10.23;;;9.30;;
15708;SDS011;7954;51.914;8.420;2023-05-07T05:23:50;9.63;;;8.80;;
15708;SDS011;7954;51.914;8.420;2023-05-07T05:26:18;9.47;;;8.57;;
15708;SDS011;7954;51.914;8.420;2023-05-07T05:28:47;9.20;;;8.40;;
15708;SDS011;7954;51.914;8.420;2023-05-07T05:31:16;11.57;;;10.43;;
15708;SDS011;7954;51.914;8.420;2023-05-07T05:33:46;11.07;;;10.00;;
15708;SDS011;7954;51.914;8.420;2023-05-07T05:36:14;10.83;;;9.83;;
15708;SDS011;7954;51.914;8.420;2023-05-07T05:38:45;11.03;;;10.03;;
15708;SDS011;7954;51.914;8.420;2023-05-07T05:41:13;10.80;;;9.80;;
15708;SDS011;7954;51.914;8.420;2023-05-07T05:43:41;10.77;;;9.57;;
15708;SDS011;7954;51.914;8.420;2023-05-07T05:46:09;10.93;;;10.03;;
15708;SDS011;7954;51.914;8.420;2023-05-07T05:48:38;11.40;;;10.30;;
15708;SDS011;7954;51.914;8.420;2023-05-07T05:51:06;11.47;;;10.37;;
15708;SDS011;7954;51.914;8.420;2023-05-07T05:53:34;10.77;;;9.73;;
15708;SDS011;7954;51.914;8.420;2023-05-07T05:56:03;11.33;;;10.23;;
15708;SDS011;7954;51.914;8.420;2023-05-07T05:58:32;10.70;;;9.70;;
15708;SDS011;7954;51.914;8.420;2023-05-07T06:01:00;11.37;;;10.37;;
15708;SDS011;7954;51.914;8.420;2023-05-07T06:03:28;11.63;;;10.63;;
15708;SDS011;7954;51.914;8.420;2023-05-07T06:05:56;11.77;;;10.77;;
15708;SDS011;7954;51.914;8.420;2023-05-07T06:08:24;10.93;;;10.03;;
15708;SDS011;7954;51.914;8.420;2023-05-07T06:10:53;11.17;;;10.17;;
15708;SDS011;7954;51.914;8.420;2023-05-07T06:13:24;11.40;;;10.37;;
15708;SDS011;7954;51.914;8.420;2023-05-07T06:15:52;11.33;;;10.33;;
15708;SDS011;7954;51.914;8.420;2023-05-07T06:18:20;11.00;;;9.93;;
15708;SDS011;7954;51.914;8.420;2023-05-07T06:20:48;10.43;;;9.53;;
15708;SDS011;7954;51.914;8.420;2023-05-07T06:23:16;11.53;;;10.53;;
15708;SDS011;7954;51.914;8.420;2023-05-07T06:25:47;10.47;;;9.57;;
15708;SDS011;7954;51.914;8.420;2023-05-07T06:28:16;10.50;;;9.50;;
15708;SDS011;7954;51.914;8.420;2023-05-07T06:30:46;10.90;;;10.00;;
15708;SDS011;7954;51.914;8.420;2023-05-07T06:33:16;11.10;;;10.10;;
15708;SDS011;7954;51.914;8.420;2023-05-07T06:35:45;10.07;;;9.13;;
15708;SDS011;7954;51.914;8.420;2023-05-07T06:38:13;10.60;;;9.70;;
15708;SDS011;7954;51.914;8.420;2023-05-07T06:40:41;10.43;;;9.43;;
15708;SDS011;7954;51.914;8.420;2023-05-07T06:43:09;10.10;;;9.30;;
15708;SDS011;7954;51.914;8.420;2023-05-07T06:45:37;10.43;;;9.43;;
15708;SDS011;7954;51.914;8.420;2023-05-07T06:48:06;9.73;;;8.93;;
15708;SDS011;7954;51.914;8.420;2023-05-07T06:50:34;11.03;;;9.73;;
15708;SDS011;7954;51.914;8.420;2023-05-07T06:53:03;9.77;;;8.87;;
15708;SDS011;7954;51.914;8.420;2023-05-07T06:55:31;9.57;;;8.67;;
15708;SDS011;7954;51.914;8.420;2023-05-07T06:57:59;9.77;;;8.87;;
15708;SDS011;7954;51.914;8.420;2023-05-07T07:00:27;8.90;;;8.13;;
15708;SDS011;7954;51.914;8.420;2023-05-07T07:02:55;10.30;;;8.80;;
15708;SDS011;7954;51.914;8.420;2023-05-07T07:05:25;9.40;;;8.60;;
15708;SDS011;7954;51.914;8.420;2023-05-07T07:07:53;9.23;;;8.43;;
15708;SDS011;7954;51.914;8.420;2023-05-07T07:10:20;9.90;;;9.10;;
15708;SDS011;7954;51.914;8.420;2023-05-07T07:12:49;10.27;;;9.30;;
15708;SDS011;7954;51.914;8.420;2023-05-07T07:15:19;8.73;;;8.03;;
15708;SDS011;7954;51.914;8.420;2023-05-07T07:17:48;9.27;;;8.43;;
15708;SDS011;7954;51.914;8.420;2023-05-07T07:20:17;8.83;;;8.03;;
15708;SDS011;7954;51.914;8.420;2023-05-07T07:22:48;10.10;;;9.20;;
15708;SDS011;7954;51.914;8.420;2023-05-07T07:25:16;9.47;;;8.50;;
15708;SDS011;7954;51.914;8.420;2023-05-07T07:27:43;8.83;;;7.93;;
15708;SDS011;7954;51.914;8.420;2023-05-07T07:30:12;9.00;;;8.30;;
15708;SDS011;7954;51.914;8.420;2023-05-07T07:32:40;8.10;;;7.40;;
15708;SDS011;7954;51.914;8.420;2023-05-07T07:35:09;8.23;;;7.37;;
15708;SDS011;7954;51.914;8.420;2023-05-07T07:37:38;8.73;;;8.03;;
15708;SDS011;7954;51.914;8.420;2023-05-07T07:40:08;8.63;;;7.93;;
15708;SDS011;7954;51.914;8.420;2023-05-07T07:42:38;7.70;;;7.00;;
15708;SDS011;7954;51.914;8.420;2023-05-07T07:45:07;8.20;;;7.50;;
15708;SDS011;7954;51.914;8.420;2023-05-07T07:47:35;8.33;;;7.30;;
15708;SDS011;7954;51.914;8.420;2023-05-07T07:50:03;7.27;;;6.67;;
15708;SDS011;7954;51.914;8.420;2023-05-07T07:52:33;8.00;;;7.30;;
15708;SDS011;7954;51.914;8.420;2023-05-07T07:55:00;7.90;;;7.20;;
15708;SDS011;7954;51.914;8.420;2023-05-07T07:57:31;8.10;;;7.40;;
15708;SDS011;7954;51.914;8.420;2023-05-07T07:59:59;7.77;;;7.07;;
15708;SDS011;7954;51.914;8.420;2023-05-07T08:02:27;7.60;;;6.93;;
15708;SDS011;7954;51.914;8.420;2023-05-07T08:04:55;8.07;;;7.37;;
15708;SDS011;7954;51.914;8.420;2023-05-07T08:07:23;7.77;;;7.13;;
15708;SDS011;7954;51.914;8.420;2023-05-07T08:09:50;7.03;;;6.47;;
15708;SDS011;7954;51.914;8.420;2023-05-07T08:12:18;6.67;;;6.17;;
15708;SDS011;7954;51.914;8.420;2023-05-07T08:14:49;7.33;;;6.70;;
15708;SDS011;7954;51.914;8.420;2023-05-07T08:17:17;7.10;;;6.50;;
15708;SDS011;7954;51.914;8.420;2023-05-07T08:19:50;7.30;;;6.70;;
15708;SDS011;7954;51.914;8.420;2023-05-07T08:22:17;6.73;;;6.10;;
15708;SDS011;7954;51.914;8.420;2023-05-07T08:24:46;6.40;;;5.90;;
15708;SDS011;7954;51.914;8.420;2023-05-07T08:27:13;6.80;;;6.30;;
15708;SDS011;7954;51.914;8.420;2023-05-07T08:29:41;6.93;;;6.17;;
15708;SDS011;7954;51.914;8.420;2023-05-07T08:32:15;6.93;;;6.33;;
15708;SDS011;7954;51.914;8.420;2023-05-07T08:34:43;6.17;;;5.67;;
15708;SDS011;7954;51.914;8.420;2023-05-07T08:37:11;5.97;;;5.47;;
15708;SDS011;7954;51.914;8.420;2023-05-07T08:39:39;6.00;;;5.50;;
15708;SDS011;7954;51.914;8.420;2023-05-07T08:42:07;6.23;;;5.73;;
15708;SDS011;7954;51.914;8.420;2023-05-07T08:44:37;6.90;;;6.30;;
15708;SDS011;7954;51.914;8.420;2023-05-07T08:47:06;6.23;;;5.73;;
15708;SDS011;7954;51.914;8.420;2023-05-07T08:49:38;5.87;;;5.47;;
15708;SDS011;7954;51.914;8.420;2023-05-07T08:52:06;5.87;;;5.37;;
15708;SDS011;7954;51.914;8.420;2023-05-07T08:54:36;5.30;;;4.90;;
15708;SDS011;7954;51.914;8.420;2023-05-07T08:57:04;6.13;;;5.63;;
15708;SDS011;7954;51.914;8.420;2023-05-07T08:59:33;5.93;;;5.43;;
15708;SDS011;7954;51.914;8.420;2023-05-07T09:02:06;5.90;;;5.30;;
15708;SDS011;7954;51.914;8.420;2023-05-07T09:04:39;5.70;;;5.27;;
15708;SDS011;7954;51.914;8.420;2023-05-07T09:07:07;5.17;;;4.83;;
15708;SDS011;7954;51.914;8.420;2023-05-07T09:09:34;5.17;;;4.77;;
15708;SDS011;7954;51.914;8.420;2023-05-07T09:12:03;5.43;;;4.93;;
15708;SDS011;7954;51.914;8.420;2023-05-07T09:14:31;5.00;;;4.60;;
15708;SDS011;7954;51.914;8.420;2023-05-07T09:16:59;5.77;;;5.27;;
15708;SDS011;7954;51.914;8.420;2023-05-07T09:19:26;5.53;;;5.03;;
15708;SDS011;7954;51.914;8.420;2023-05-07T09:22:00;5.20;;;4.80;;
15708;SDS011;7954;51.914;8.420;2023-05-07T09:24:29;5.00;;;4.60;;
15708;SDS011;7954;51.914;8.420;2023-05-07T09:27:01;5.53;;;5.03;;
15708;SDS011;7954;51.914;8.420;2023-05-07T09:29:29;5.80;;;5.30;;
15708;SDS011;7954;51.914;8.420;2023-05-07T09:32:03;5.87;;;5.27;;
15708;SDS011;7954;51.914;8.420;2023-05-07T09:34:31;5.73;;;5.23;;
15708;SDS011;7954;51.914;8.420;2023-05-07T09:37:02;5.67;;;5.00;;
15708;SDS011;7954;51.914;8.420;2023-05-07T09:39:40;6.10;;;5.60;;
15708;SDS011;7954;51.914;8.420;2023-05-07T09:42:09;6.27;;;5.77;;
15708;SDS011;7954;51.914;8.420;2023-05-07T09:44:38;6.00;;;5.50;;
15708;SDS011;7954;51.914;8.420;2023-05-07T09:47:06;5.57;;;5.17;;
15708;SDS011;7954;51.914;8.420;2023-05-07T09:49:36;5.90;;;5.30;;
15708;SDS011;7954;51.914;8.420;2023-05-07T09:52:06;6.30;;;5.80;;
15708;SDS011;7954;51.914;8.420;2023-05-07T09:54:35;5.73;;;5.23;;
15708;SDS011;7954;51.914;8.420;2023-05-07T09:57:04;6.40;;;5.83;;
15708;SDS011;7954;51.914;8.420;2023-05-07T09:59:33;6.10;;;5.60;;
15708;SDS011;7954;51.914;8.420;2023-05-07T10:02:03;6.20;;;5.70;;
15708;SDS011;7954;51.914;8.420;2023-05-07T10:04:32;5.43;;;5.03;;
15708;SDS011;7954;51.914;8.420;2023-05-07T10:07:02;5.73;;;5.23;;
15708;SDS011;7954;51.914;8.420;2023-05-07T10:09:34;5.93;;;5.53;;
15708;SDS011;7954;51.914;8.420;2023-05-07T10:12:05;5.47;;;5.07;;
15708;SDS011;7954;51.914;8.420;2023-05-07T10:14:34;5.80;;;5.40;;
15708;SDS011;7954;51.914;8.420;2023-05-07T10:17:03;6.07;;;5.57;;
15708;SDS011;7954;51.914;8.420;2023-05-07T10:19:32;6.50;;;5.90;;
15708;SDS011;7954;51.914;8.420;2023-05-07T10:22:01;6.63;;;6.10;;
15708;SDS011;7954;51.914;8.420;2023-05-07T10:24:36;6.47;;;5.87;;
15708;SDS011;7954;51.914;8.420;2023-05-07T10:27:05;5.50;;;5.10;;
15708;SDS011;7954;51.914;8.420;2023-05-07T10:29:37;5.57;;;5.17;;
15708;SDS011;7954;51.914;8.420;2023-05-07T10:35:06;5.83;;;5.43;;
15708;SDS011;7954;51.914;8.420;2023-05-07T10:37:38;5.47;;;5.00;;
15708;SDS011;7954;51.914;8.420;2023-05-07T10:40:09;6.10;;;5.70;;
15708;SDS011;7954;51.914;8.420;2023-05-07T10:42:38;5.97;;;5.47;;
15708;SDS011;7954;51.914;8.420;2023-05-07T10:45:12;5.77;;;5.33;;
15708;SDS011;7954;51.914;8.420;2023-05-07T10:51:17;5.70;;;5.30;;
15708;SDS011;7954;51.914;8.420;2023-05-07T10:53:47;5.63;;;5.17;;
15708;SDS011;7954;51.914;8.420;2023-05-07T10:56:26;6.10;;;5.60;;
15708;SDS011;7954;51.914;8.420;2023-05-07T10:58:59;5.63;;;5.23;;
15708;SDS011;7954;51.914;8.420;2023-05-07T11:02:08;6.40;;;5.77;;
15708;SDS011;7954;51.914;8.420;2023-05-07T11:04:38;6.03;;;5.63;;
15708;SDS011;7954;51.914;8.420;2023-05-07T11:10:00;6.17;;;5.57;;
15708;SDS011;7954;51.914;8.420;2023-05-07T11:12:51;5.77;;;5.17;;
15708;SDS011;7954;51.914;8.420;2023-05-07T11:15:33;5.60;;;5.20;;
15708;SDS011;7954;51.914;8.420;2023-05-07T11:18:13;5.60;;;5.10;;
15708;SDS011;7954;51.914;8.420;2023-05-07T11:20:46;5.37;;;4.87;;
15708;SDS011;7954;51.914;8.420;2023-05-07T11:26:28;5.60;;;5.20;;
15708;SDS011;7954;51.914;8.420;2023-05-07T11:28:59;5.60;;;4.87;;
15708;SDS011;7954;51.914;8.420;2023-05-07T11:31:28;5.37;;;4.93;;
15708;SDS011;7954;51.914;8.420;2023-05-07T11:33:56;5.10;;;4.70;;
15708;SDS011;7954;51.914;8.420;2023-05-07T11:36:25;5.07;;;4.67;;
15708;SDS011;7954;51.914;8.420;2023-05-07T11:38:58;4.93;;;4.50;;
15708;SDS011;7954;51.914;8.420;2023-05-07T11:41:32;4.87;;;4.47;;
15708;SDS011;7954;51.914;8.420;2023-05-07T11:44:02;4.50;;;4.20;;
15708;SDS011;7954;51.914;8.420;2023-05-07T11:46:30;6.20;;;3.80;;
15708;SDS011;7954;51.914;8.420;2023-05-07T11:49:00;4.87;;;4.57;;
15708;SDS011;7954;51.914;8.420;2023-05-07T11:51:28;4.60;;;4.20;;
15708;SDS011;7954;51.914;8.420;2023-05-07T11:53:56;4.63;;;4.32;;
15708;SDS011;7954;51.914;8.420;2023-05-07T11:56:25;4.07;;;3.77;;
15708;SDS011;7954;51.914;8.420;2023-05-07T11:58:53;4.45;;;4.15;;
15708;SDS011;7954;51.914;8.420;2023-05-07T12:01:22;4.00;;;3.70;;
15708;SDS011;7954;51.914;8.420;2023-05-07T12:03:51;4.80;;;4.20;;
15708;SDS011;7954;51.914;8.420;2023-05-07T12:06:19;4.40;;;4.07;;
15708;SDS011;7954;51.914;8.420;2023-05-07T12:08:50;4.47;;;4.03;;
15708;SDS011;7954;51.914;8.420;2023-05-07T12:11:21;4.97;;;4.22;;
15708;SDS011;7954;51.914;8.420;2023-05-07T12:13:53;3.60;;;3.40;;
15708;SDS011;7954;51.914;8.420;2023-05-07T12:16:26;3.87;;;3.57;;
15708;SDS011;7954;51.914;8.420;2023-05-07T12:19:02;3.60;;;3.30;;
15708;SDS011;7954;51.914;8.420;2023-05-07T12:21:30;4.25;;;3.95;;
15708;SDS011;7954;51.914;8.420;2023-05-07T12:23:58;3.85;;;3.55;;
15708;SDS011;7954;51.914;8.420;2023-05-07T12:26:26;3.55;;;3.25;;
15708;SDS011;7954;51.914;8.420;2023-05-07T12:28:54;4.40;;;3.50;;
15708;SDS011;7954;51.914;8.420;2023-05-07T12:31:23;3.83;;;3.53;;
15708;SDS011;7954;51.914;8.420;2023-05-07T12:33:54;3.20;;;3.00;;
15708;SDS011;7954;51.914;8.420;2023-05-07T12:36:22;3.83;;;3.53;;
15708;SDS011;7954;51.914;8.420;2023-05-07T12:38:51;4.63;;;3.22;;
15708;SDS011;7954;51.914;8.420;2023-05-07T12:41:19;3.22;;;2.90;;
15708;SDS011;7954;51.914;8.420;2023-05-07T12:43:52;3.50;;;2.90;;
15708;SDS011;7954;51.914;8.420;2023-05-07T12:46:23;3.13;;;2.92;;
15708;SDS011;7954;51.914;8.420;2023-05-07T12:48:52;3.03;;;2.72;;
15708;SDS011;7954;51.914;8.420;2023-05-07T12:51:22;2.80;;;2.60;;
15708;SDS011;7954;51.914;8.420;2023-05-07T12:53:50;3.35;;;3.08;;
15708;SDS011;7954;51.914;8.420;2023-05-07T12:56:18;2.60;;;2.40;;
15708;SDS011;7954;51.914;8.420;2023-05-07T12:58:48;2.42;;;2.25;;
15708;SDS011;7954;51.914;8.420;2023-05-07T13:01:16;3.75;;;3.30;;
15708;SDS011;7954;51.914;8.420;2023-05-07T13:03:48;3.95;;;3.40;;
15708;SDS011;7954;51.914;8.420;2023-05-07T13:06:18;3.22;;;2.97;;
15708;SDS011;7954;51.914;8.420;2023-05-07T13:08:47;3.00;;;2.80;;
15708;SDS011;7954;51.914;8.420;2023-05-07T13:11:15;2.78;;;2.58;;
15708;SDS011;7954;51.914;8.420;2023-05-07T13:13:43;2.70;;;2.50;;
15708;SDS011;7954;51.914;8.420;2023-05-07T13:16:11;2.75;;;2.55;;
15708;SDS011;7954;51.914;8.420;2023-05-07T13:18:39;3.80;;;2.65;;
15708;SDS011;7954;51.914;8.420;2023-05-07T13:21:10;2.70;;;2.50;;
15708;SDS011;7954;51.914;8.420;2023-05-07T13:23:41;2.70;;;2.50;;
15708;SDS011;7954;51.914;8.420;2023-05-07T13:26:09;2.40;;;2.30;;
15708;SDS011;7954;51.914;8.420;2023-05-07T13:28:52;3.85;;;2.75;;
15708;SDS011;7954;51.914;8.420;2023-05-07T13:31:20;2.65;;;2.45;;
15708;SDS011;7954;51.914;8.420;2023-05-07T13:33:48;18.73;;;3.05;;
15708;SDS011;7954;51.914;8.420;2023-05-07T13:36:17;2.78;;;2.58;;
15708;SDS011;7954;51.914;8.420;2023-05-07T13:38:47;3.25;;;2.20;;
15708;SDS011;7954;51.914;8.420;2023-05-07T13:41:16;2.15;;;2.05;;
15708;SDS011;7954;51.914;8.420;2023-05-07T13:43:45;4.68;;;4.25;;
15708;SDS011;7954;51.914;8.420;2023-05-07T13:46:13;2.60;;;2.40;;
15708;SDS011;7954;51.914;8.420;2023-05-07T13:48:41;2.60;;;2.40;;
15708;SDS011;7954;51.914;8.420;2023-05-07T13:51:09;2.65;;;2.45;;
15708;SDS011;7954;51.914;8.420;2023-05-07T13:53:38;2.30;;;2.20;;
15708;SDS011;7954;51.914;8.420;2023-05-07T13:56:07;2.50;;;2.30;;
15708;SDS011;7954;51.914;8.420;2023-05-07T13:58:36;3.33;;;2.30;;
15708;SDS011;7954;51.914;8.420;2023-05-07T14:01:21;2.58;;;2.40;;
15708;SDS011;7954;51.914;8.420;2023-05-07T14:03:50;2.50;;;2.30;;
15708;SDS011;7954;51.914;8.420;2023-05-07T14:06:18;3.97;;;2.30;;
15708;SDS011;7954;51.914;8.420;2023-05-07T14:08:46;3.35;;;2.50;;
15708;SDS011;7954;51.914;8.420;2023-05-07T14:11:16;2.28;;;2.17;;
15708;SDS011;7954;51.914;8.420;2023-05-07T14:13:45;2.33;;;2.13;;
15708;SDS011;7954;51.914;8.420;2023-05-07T14:16:13;2.28;;;2.10;;
15708;SDS011;7954;51.914;8.420;2023-05-07T14:18:41;2.30;;;2.10;;
15708;SDS011;7954;51.914;8.420;2023-05-07T14:21:09;2.60;;;2.30;;
15708;SDS011;7954;51.914;8.420;2023-05-07T14:23:37;2.40;;;2.20;;
15708;SDS011;7954;51.914;8.420;2023-05-07T14:26:05;6.50;;;2.30;;
15708;SDS011;7954;51.914;8.420;2023-05-07T14:28:34;2.50;;;2.30;;
15708;SDS011;7954;51.914;8.420;2023-05-07T14:31:02;2.33;;;2.13;;
15708;SDS011;7954;51.914;8.420;2023-05-07T14:33:30;2.05;;;1.95;;
15708;SDS011;7954;51.914;8.420;2023-05-07T14:35:58;2.50;;;2.30;;
15708;SDS011;7954;51.914;8.420;2023-05-07T14:38:26;2.20;;;1.95;;
15708;SDS011;7954;51.914;8.420;2023-05-07T14:40:58;2.30;;;2.10;;
15708;SDS011;7954;51.914;8.420;2023-05-07T14:43:26;2.40;;;2.20;;
15708;SDS011;7954;51.914;8.420;2023-05-07T14:45:55;2.20;;;2.10;;
15708;SDS011;7954;51.914;8.420;2023-05-07T14:48:23;2.67;;;2.47;;
15708;SDS011;7954;51.914;8.420;2023-05-07T14:50:51;2.67;;;2.47;;
15708;SDS011;7954;51.914;8.420;2023-05-07T14:53:19;2.17;;;2.08;;
15708;SDS011;7954;51.914;8.420;2023-05-07T14:55:47;2.83;;;2.63;;
15708;SDS011;7954;51.914;8.420;2023-05-07T14:58:16;2.90;;;2.70;;
15708;SDS011;7954;51.914;8.420;2023-05-07T15:00:44;2.53;;;2.33;;
15708;SDS011;7954;51.914;8.420;2023-05-07T15:03:14;2.58;;;2.38;;
15708;SDS011;7954;51.914;8.420;2023-05-07T15:05:42;3.30;;;3.00;;
15708;SDS011;7954;51.914;8.420;2023-05-07T15:08:10;2.70;;;2.47;;
15708;SDS011;7954;51.914;8.420;2023-05-07T15:10:38;3.03;;;2.83;;
15708;SDS011;7954;51.914;8.420;2023-05-07T15:13:09;3.30;;;3.08;;
15708;SDS011;7954;51.914;8.420;2023-05-07T15:15:59;3.00;;;2.80;;
15708;SDS011;7954;51.914;8.420;2023-05-07T15:18:49;3.38;;;3.17;;
15708;SDS011;7954;51.914;8.420;2023-05-07T15:21:37;3.17;;;2.90;;
15708;SDS011;7954;51.914;8.420;2023-05-07T15:24:25;3.42;;;3.20;;